sensor_id;sensor_type;location;lat;lon;timestamp;P1;durP1;ratioP1;P2;durP2;ratioP2
48403;SDS011;34202;52.536;6.042;2022-12-13T00:02:32;31.30;;;13.90;;
48403;SDS011;34202;52.536;6.042;2022-12-13T00:07:33;24.90;;;13.40;;
48403;SDS011;34202;52.536;6.042;2022-12-13T00:12:33;25.00;;;14.10;;
48403;SDS011;34202;52.536;6.042;2022-12-13T00:17:34;28.90;;;14.00;;
48403;SDS011;34202;52.536;6.042;2022-12-13T00:22:34;27.50;;;14.60;;
48403;SDS011;34202;52.536;6.042;2022-12-13T00:27:34;25.70;;;14.40;;
48403;SDS011;34202;52.536;6.042;2022-12-13T00:32:35;23.50;;;12.70;;
48403;SDS011;34202;52.536;6.042;2022-12-13T00:37:35;25.30;;;13.70;;
48403;SDS011;34202;52.536;6.042;2022-12-13T00:42:36;30.00;;;15.90;;
48403;SDS011;34202;52.536;6.042;2022-12-13T00:47:36;24.60;;;14.30;;
48403;SDS011;34202;52.536;6.042;2022-12-13T00:52:36;28.10;;;15.00;;
48403;SDS011;34202;52.536;6.042;2022-12-13T00:57:37;30.50;;;15.10;;
48403;SDS011;34202;52.536;6.042;2022-12-13T01:02:37;28.50;;;14.60;;
48403;SDS011;34202;52.536;6.042;2022-12-13T01:07:38;22.80;;;13.60;;
48403;SDS011;34202;52.536;6.042;2022-12-13T01:12:39;27.30;;;12.70;;
48403;SDS011;34202;52.536;6.042;2022-12-13T01:17:39;26.80;;;14.40;;
48403;SDS011;34202;52.536;6.042;2022-12-13T01:22:39;26.60;;;13.90;;
48403;SDS011;34202;52.536;6.042;2022-12-13T01:27:39;25.60;;;13.60;;
48403;SDS011;34202;52.536;6.042;2022-12-13T01:32:40;26.40;;;15.20;;
48403;SDS011;34202;52.536;6.042;2022-12-13T01:37:40;28.00;;;13.70;;
48403;SDS011;34202;52.536;6.042;2022-12-13T01:42:42;22.00;;;12.80;;
48403;SDS011;34202;52.536;6.042;2022-12-13T01:47:44;24.40;;;14.60;;
48403;SDS011;34202;52.536;6.042;2022-12-13T01:52:47;21.40;;;12.90;;
48403;SDS011;34202;52.536;6.042;2022-12-13T01:57:48;29.40;;;14.20;;
48403;SDS011;34202;52.536;6.042;2022-12-13T02:02:51;24.60;;;13.50;;
48403;SDS011;34202;52.536;6.042;2022-12-13T02:07:53;29.10;;;12.90;;
48403;SDS011;34202;52.536;6.042;2022-12-13T02:12:56;23.90;;;13.00;;
48403;SDS011;34202;52.536;6.042;2022-12-13T02:49:19;27.00;;;13.90;;
48403;SDS011;34202;52.536;6.042;2022-12-13T02:54:23;19.30;;;12.20;;
48403;SDS011;34202;52.536;6.042;2022-12-13T02:59:24;23.30;;;13.90;;
48403;SDS011;34202;52.536;6.042;2022-12-13T03:04:39;24.10;;;13.40;;
48403;SDS011;34202;52.536;6.042;2022-12-13T03:10:11;27.10;;;13.50;;
48403;SDS011;34202;52.536;6.042;2022-12-13T03:15:19;24.70;;;13.60;;
48403;SDS011;34202;52.536;6.042;2022-12-13T03:20:30;27.20;;;14.00;;
48403;SDS011;34202;52.536;6.042;2022-12-13T03:25:30;31.80;;;13.90;;
48403;SDS011;34202;52.536;6.042;2022-12-13T03:30:31;25.90;;;12.50;;
48403;SDS011;34202;52.536;6.042;2022-12-13T03:35:32;23.10;;;14.10;;
48403;SDS011;34202;52.536;6.042;2022-12-13T03:40:33;34.70;;;15.00;;
48403;SDS011;34202;52.536;6.042;2022-12-13T03:45:34;24.80;;;14.60;;
48403;SDS011;34202;52.536;6.042;2022-12-13T03:50:34;26.30;;;14.40;;
48403;SDS011;34202;52.536;6.042;2022-12-13T03:55:35;30.20;;;15.80;;
48403;SDS011;34202;52.536;6.042;2022-12-13T04:00:35;36.80;;;16.30;;
48403;SDS011;34202;52.536;6.042;2022-12-13T04:05:35;29.00;;;14.90;;
48403;SDS011;34202;52.536;6.042;2022-12-13T04:10:36;28.10;;;15.00;;
48403;SDS011;34202;52.536;6.042;2022-12-13T04:15:36;28.20;;;15.70;;
48403;SDS011;34202;52.536;6.042;2022-12-13T04:20:37;33.30;;;18.10;;
48403;SDS011;34202;52.536;6.042;2022-12-13T04:25:37;35.60;;;16.70;;
48403;SDS011;34202;52.536;6.042;2022-12-13T04:30:39;32.70;;;16.70;;
48403;SDS011;34202;52.536;6.042;2022-12-13T04:35:39;30.90;;;16.30;;
48403;SDS011;34202;52.536;6.042;2022-12-13T04:40:39;33.70;;;15.30;;
48403;SDS011;34202;52.536;6.042;2022-12-13T04:45:39;29.90;;;16.20;;
48403;SDS011;34202;52.536;6.042;2022-12-13T04:50:40;30.10;;;16.10;;
48403;SDS011;34202;52.536;6.042;2022-12-13T04:55:40;30.30;;;16.30;;
48403;SDS011;34202;52.536;6.042;2022-12-13T05:00:41;30.20;;;16.40;;
48403;SDS011;34202;52.536;6.042;2022-12-13T05:05:41;30.00;;;16.20;;
48403;SDS011;34202;52.536;6.042;2022-12-13T05:10:42;31.10;;;17.30;;
48403;SDS011;34202;52.536;6.042;2022-12-13T05:15:42;28.20;;;15.70;;
48403;SDS011;34202;52.536;6.042;2022-12-13T05:20:42;26.10;;;14.80;;
48403;SDS011;34202;52.536;6.042;2022-12-13T05:25:42;33.60;;;17.20;;
48403;SDS011;34202;52.536;6.042;2022-12-13T05:30:43;29.00;;;15.90;;
48403;SDS011;34202;52.536;6.042;2022-12-13T05:35:43;25.70;;;15.40;;
48403;SDS011;34202;52.536;6.042;2022-12-13T05:40:44;23.80;;;13.40;;
48403;SDS011;34202;52.536;6.042;2022-12-13T05:45:44;25.50;;;14.70;;
48403;SDS011;34202;52.536;6.042;2022-12-13T05:50:45;26.10;;;15.80;;
48403;SDS011;34202;52.536;6.042;2022-12-13T05:55:45;21.30;;;13.60;;
48403;SDS011;34202;52.536;6.042;2022-12-13T06:00:45;34.80;;;19.40;;
48403;SDS011;34202;52.536;6.042;2022-12-13T06:05:47;28.10;;;15.70;;
48403;SDS011;34202;52.536;6.042;2022-12-13T06:10:52;34.50;;;16.10;;
48403;SDS011;34202;52.536;6.042;2022-12-13T06:15:53;31.20;;;14.00;;
48403;SDS011;34202;52.536;6.042;2022-12-13T06:20:54;35.20;;;17.70;;
48403;SDS011;34202;52.536;6.042;2022-12-13T06:25:57;37.50;;;17.70;;
48403;SDS011;34202;52.536;6.042;2022-12-13T06:30:58;37.20;;;16.70;;
48403;SDS011;34202;52.536;6.042;2022-12-13T06:36:00;28.60;;;15.70;;
48403;SDS011;34202;52.536;6.042;2022-12-13T06:41:07;37.60;;;18.80;;
48403;SDS011;34202;52.536;6.042;2022-12-13T06:46:09;43.40;;;21.40;;
48403;SDS011;34202;52.536;6.042;2022-12-13T06:51:10;30.80;;;15.90;;
48403;SDS011;34202;52.536;6.042;2022-12-13T06:56:11;30.20;;;15.30;;
48403;SDS011;34202;52.536;6.042;2022-12-13T07:01:14;33.70;;;15.90;;
48403;SDS011;34202;52.536;6.042;2022-12-13T07:06:17;29.50;;;16.20;;
48403;SDS011;34202;52.536;6.042;2022-12-13T07:11:20;30.90;;;18.20;;
48403;SDS011;34202;52.536;6.042;2022-12-13T07:16:23;28.20;;;17.40;;
48403;SDS011;34202;52.536;6.042;2022-12-13T07:21:23;34.10;;;18.50;;
48403;SDS011;34202;52.536;6.042;2022-12-13T07:26:24;31.20;;;16.70;;
48403;SDS011;34202;52.536;6.042;2022-12-13T07:31:25;31.60;;;18.00;;
48403;SDS011;34202;52.536;6.042;2022-12-13T07:36:25;34.50;;;17.30;;
48403;SDS011;34202;52.536;6.042;2022-12-13T07:41:25;37.00;;;17.40;;
48403;SDS011;34202;52.536;6.042;2022-12-13T07:46:26;29.10;;;16.40;;
48403;SDS011;34202;52.536;6.042;2022-12-13T07:51:26;40.30;;;18.40;;
48403;SDS011;34202;52.536;6.042;2022-12-13T07:56:27;33.20;;;17.30;;
48403;SDS011;34202;52.536;6.042;2022-12-13T08:01:27;40.20;;;18.70;;
48403;SDS011;34202;52.536;6.042;2022-12-13T08:06:28;31.30;;;17.50;;
48403;SDS011;34202;52.536;6.042;2022-12-13T08:11:28;34.90;;;19.20;;
48403;SDS011;34202;52.536;6.042;2022-12-13T08:16:28;34.40;;;17.00;;
48403;SDS011;34202;52.536;6.042;2022-12-13T08:21:32;30.90;;;15.90;;
48403;SDS011;34202;52.536;6.042;2022-12-13T08:26:37;29.80;;;16.10;;
48403;SDS011;34202;52.536;6.042;2022-12-13T08:31:38;32.00;;;16.50;;
48403;SDS011;34202;52.536;6.042;2022-12-13T08:36:38;29.50;;;16.80;;
48403;SDS011;34202;52.536;6.042;2022-12-13T08:41:39;29.10;;;17.10;;
48403;SDS011;34202;52.536;6.042;2022-12-13T08:46:39;31.60;;;18.00;;
48403;SDS011;34202;52.536;6.042;2022-12-13T08:51:39;28.30;;;16.50;;
48403;SDS011;34202;52.536;6.042;2022-12-13T08:56:40;30.80;;;16.80;;
48403;SDS011;34202;52.536;6.042;2022-12-13T09:01:40;33.30;;;17.20;;
48403;SDS011;34202;52.536;6.042;2022-12-13T09:06:41;30.30;;;18.00;;
48403;SDS011;34202;52.536;6.042;2022-12-13T09:11:42;36.30;;;17.90;;
48403;SDS011;34202;52.536;6.042;2022-12-13T09:16:42;33.90;;;18.30;;
48403;SDS011;34202;52.536;6.042;2022-12-13T09:21:42;32.30;;;17.10;;
48403;SDS011;34202;52.536;6.042;2022-12-13T09:26:43;53.00;;;22.70;;
48403;SDS011;34202;52.536;6.042;2022-12-13T09:31:43;35.30;;;21.40;;
48403;SDS011;34202;52.536;6.042;2022-12-13T09:36:43;37.40;;;20.30;;
48403;SDS011;34202;52.536;6.042;2022-12-13T09:41:47;41.80;;;22.30;;
48403;SDS011;34202;52.536;6.042;2022-12-13T09:46:51;46.60;;;22.80;;
48403;SDS011;34202;52.536;6.042;2022-12-13T09:51:54;43.00;;;23.20;;
48403;SDS011;34202;52.536;6.042;2022-12-13T09:56:58;37.40;;;19.60;;
48403;SDS011;34202;52.536;6.042;2022-12-13T10:02:20;38.40;;;23.00;;
48403;SDS011;34202;52.536;6.042;2022-12-13T10:07:24;44.10;;;22.70;;
48403;SDS011;34202;52.536;6.042;2022-12-13T10:12:24;39.20;;;22.50;;
48403;SDS011;34202;52.536;6.042;2022-12-13T10:17:25;42.20;;;23.80;;
48403;SDS011;34202;52.536;6.042;2022-12-13T10:22:31;39.90;;;21.80;;
48403;SDS011;34202;52.536;6.042;2022-12-13T10:27:33;37.80;;;21.10;;
48403;SDS011;34202;52.536;6.042;2022-12-13T10:43:16;44.80;;;23.00;;
48403;SDS011;34202;52.536;6.042;2022-12-13T10:48:18;40.80;;;22.00;;
48403;SDS011;34202;52.536;6.042;2022-12-13T10:53:21;44.20;;;21.80;;
48403;SDS011;34202;52.536;6.042;2022-12-13T10:58:22;41.60;;;21.90;;
48403;SDS011;34202;52.536;6.042;2022-12-13T11:03:34;43.60;;;22.70;;
48403;SDS011;34202;52.536;6.042;2022-12-13T11:08:35;43.50;;;23.00;;
48403;SDS011;34202;52.536;6.042;2022-12-13T11:18:46;44.70;;;23.10;;
48403;SDS011;34202;52.536;6.042;2022-12-13T11:23:53;35.70;;;18.90;;
48403;SDS011;34202;52.536;6.042;2022-12-13T11:29:03;41.20;;;24.20;;
48403;SDS011;34202;52.536;6.042;2022-12-13T11:34:18;40.00;;;22.60;;
48403;SDS011;34202;52.536;6.042;2022-12-13T11:39:25;40.10;;;23.80;;
48403;SDS011;34202;52.536;6.042;2022-12-13T11:44:38;36.60;;;20.40;;
48403;SDS011;34202;52.536;6.042;2022-12-13T11:49:46;39.80;;;22.50;;
48403;SDS011;34202;52.536;6.042;2022-12-13T11:59:59;43.10;;;24.40;;
48403;SDS011;34202;52.536;6.042;2022-12-13T12:05:10;37.90;;;24.30;;
48403;SDS011;34202;52.536;6.042;2022-12-13T12:15:34;49.30;;;27.40;;
48403;SDS011;34202;52.536;6.042;2022-12-13T12:26:10;38.90;;;21.30;;
48403;SDS011;34202;52.536;6.042;2022-12-13T12:31:18;41.40;;;24.20;;
48403;SDS011;34202;52.536;6.042;2022-12-13T12:36:41;43.70;;;24.80;;
48403;SDS011;34202;52.536;6.042;2022-12-13T12:41:55;41.30;;;24.10;;
48403;SDS011;34202;52.536;6.042;2022-12-13T12:47:03;40.40;;;25.00;;
48403;SDS011;34202;52.536;6.042;2022-12-13T13:08:32;36.60;;;20.40;;
48403;SDS011;34202;52.536;6.042;2022-12-13T13:34:24;40.10;;;22.30;;
48403;SDS011;34202;52.536;6.042;2022-12-13T13:44:33;39.70;;;20.90;;
48403;SDS011;34202;52.536;6.042;2022-12-13T14:01:20;41.60;;;21.60;;
48403;SDS011;34202;52.536;6.042;2022-12-13T14:06:51;36.00;;;19.00;;
48403;SDS011;34202;52.536;6.042;2022-12-13T14:23:01;35.40;;;22.30;;
48403;SDS011;34202;52.536;6.042;2022-12-13T14:33:31;45.50;;;23.10;;
48403;SDS011;34202;52.536;6.042;2022-12-13T14:38:31;40.80;;;24.10;;
48403;SDS011;34202;52.536;6.042;2022-12-13T14:43:32;42.70;;;22.50;;
48403;SDS011;34202;52.536;6.042;2022-12-13T14:48:42;38.90;;;22.70;;
48403;SDS011;34202;52.536;6.042;2022-12-13T14:53:44;35.60;;;20.30;;
48403;SDS011;34202;52.536;6.042;2022-12-13T14:58:51;37.90;;;19.80;;
48403;SDS011;34202;52.536;6.042;2022-12-13T15:03:53;37.90;;;20.50;;
48403;SDS011;34202;52.536;6.042;2022-12-13T15:08:53;35.40;;;20.50;;
48403;SDS011;34202;52.536;6.042;2022-12-13T15:13:54;41.80;;;22.20;;
48403;SDS011;34202;52.536;6.042;2022-12-13T15:24:27;40.60;;;22.80;;
48403;SDS011;34202;52.536;6.042;2022-12-13T15:29:30;41.00;;;22.80;;
48403;SDS011;34202;52.536;6.042;2022-12-13T15:34:35;41.40;;;23.80;;
48403;SDS011;34202;52.536;6.042;2022-12-13T15:39:37;38.90;;;22.60;;
48403;SDS011;34202;52.536;6.042;2022-12-13T15:44:40;39.40;;;23.60;;
48403;SDS011;34202;52.536;6.042;2022-12-13T15:49:56;46.90;;;25.90;;
48403;SDS011;34202;52.536;6.042;2022-12-13T16:05:34;44.00;;;25.00;;
48403;SDS011;34202;52.536;6.042;2022-12-13T16:10:36;49.90;;;26.30;;
48403;SDS011;34202;52.536;6.042;2022-12-13T16:15:49;46.80;;;23.70;;
48403;SDS011;34202;52.536;6.042;2022-12-13T16:20:52;49.80;;;25.60;;
48403;SDS011;34202;52.536;6.042;2022-12-13T16:25:53;47.00;;;23.90;;
48403;SDS011;34202;52.536;6.042;2022-12-13T16:35:53;46.00;;;24.80;;
48403;SDS011;34202;52.536;6.042;2022-12-13T16:40:54;47.90;;;23.10;;
48403;SDS011;34202;52.536;6.042;2022-12-13T16:45:58;53.40;;;27.80;;
48403;SDS011;34202;52.536;6.042;2022-12-13T16:51:01;40.10;;;21.80;;
48403;SDS011;34202;52.536;6.042;2022-12-13T16:56:04;50.80;;;25.20;;
48403;SDS011;34202;52.536;6.042;2022-12-13T17:01:09;48.80;;;24.40;;
48403;SDS011;34202;52.536;6.042;2022-12-13T17:06:11;50.80;;;25.90;;
48403;SDS011;34202;52.536;6.042;2022-12-13T17:11:13;44.40;;;22.90;;
48403;SDS011;34202;52.536;6.042;2022-12-13T17:16:13;46.60;;;23.20;;
48403;SDS011;34202;52.536;6.042;2022-12-13T17:21:26;44.60;;;22.90;;
48403;SDS011;34202;52.536;6.042;2022-12-13T17:26:27;49.70;;;24.40;;
48403;SDS011;34202;52.536;6.042;2022-12-13T17:31:29;47.00;;;26.70;;
48403;SDS011;34202;52.536;6.042;2022-12-13T17:36:29;46.70;;;24.80;;
48403;SDS011;34202;52.536;6.042;2022-12-13T17:41:32;43.80;;;23.10;;
48403;SDS011;34202;52.536;6.042;2022-12-13T17:46:33;42.00;;;21.90;;
48403;SDS011;34202;52.536;6.042;2022-12-13T17:51:33;39.00;;;20.80;;
48403;SDS011;34202;52.536;6.042;2022-12-13T17:56:33;37.40;;;21.90;;
48403;SDS011;34202;52.536;6.042;2022-12-13T18:01:34;46.10;;;23.70;;
48403;SDS011;34202;52.536;6.042;2022-12-13T18:06:34;40.60;;;22.70;;
48403;SDS011;34202;52.536;6.042;2022-12-13T18:11:35;43.40;;;22.80;;
48403;SDS011;34202;52.536;6.042;2022-12-13T18:16:37;38.10;;;20.40;;
48403;SDS011;34202;52.536;6.042;2022-12-13T18:21:38;39.60;;;24.30;;
48403;SDS011;34202;52.536;6.042;2022-12-13T18:26:39;46.70;;;21.80;;
48403;SDS011;34202;52.536;6.042;2022-12-13T18:31:40;38.30;;;21.20;;
48403;SDS011;34202;52.536;6.042;2022-12-13T18:36:40;37.40;;;22.00;;
48403;SDS011;34202;52.536;6.042;2022-12-13T18:41:40;40.80;;;21.90;;
48403;SDS011;34202;52.536;6.042;2022-12-13T18:46:41;43.00;;;19.20;;
48403;SDS011;34202;52.536;6.042;2022-12-13T18:51:42;41.10;;;21.30;;
48403;SDS011;34202;52.536;6.042;2022-12-13T18:56:42;41.10;;;20.90;;
48403;SDS011;34202;52.536;6.042;2022-12-13T19:01:43;42.10;;;20.60;;
48403;SDS011;34202;52.536;6.042;2022-12-13T19:06:43;38.60;;;22.00;;
48403;SDS011;34202;52.536;6.042;2022-12-13T19:11:43;37.60;;;20.20;;
48403;SDS011;34202;52.536;6.042;2022-12-13T19:16:44;42.70;;;24.40;;
48403;SDS011;34202;52.536;6.042;2022-12-13T19:21:44;40.90;;;23.50;;
48403;SDS011;34202;52.536;6.042;2022-12-13T19:26:44;43.20;;;22.10;;
48403;SDS011;34202;52.536;6.042;2022-12-13T19:31:45;40.70;;;23.50;;
48403;SDS011;34202;52.536;6.042;2022-12-13T19:36:45;37.20;;;20.60;;
48403;SDS011;34202;52.536;6.042;2022-12-13T19:41:45;39.40;;;20.40;;
48403;SDS011;34202;52.536;6.042;2022-12-13T19:46:46;39.70;;;23.40;;
48403;SDS011;34202;52.536;6.042;2022-12-13T19:51:47;39.70;;;21.40;;
48403;SDS011;34202;52.536;6.042;2022-12-13T19:56:47;37.40;;;22.30;;
48403;SDS011;34202;52.536;6.042;2022-12-13T20:01:48;49.40;;;26.00;;
48403;SDS011;34202;52.536;6.042;2022-12-13T20:06:48;43.10;;;24.00;;
48403;SDS011;34202;52.536;6.042;2022-12-13T20:11:49;37.80;;;21.30;;
48403;SDS011;34202;52.536;6.042;2022-12-13T20:16:49;40.20;;;22.70;;
48403;SDS011;34202;52.536;6.042;2022-12-13T20:21:49;32.20;;;20.80;;
48403;SDS011;34202;52.536;6.042;2022-12-13T20:26:50;36.50;;;21.70;;
48403;SDS011;34202;52.536;6.042;2022-12-13T20:31:50;37.70;;;23.00;;
48403;SDS011;34202;52.536;6.042;2022-12-13T20:36:52;38.20;;;22.60;;
48403;SDS011;34202;52.536;6.042;2022-12-13T20:41:53;39.30;;;23.10;;
48403;SDS011;34202;52.536;6.042;2022-12-13T20:46:53;41.30;;;22.70;;
48403;SDS011;34202;52.536;6.042;2022-12-13T20:51:53;33.10;;;19.80;;
48403;SDS011;34202;52.536;6.042;2022-12-13T20:56:54;37.80;;;21.80;;
48403;SDS011;34202;52.536;6.042;2022-12-13T21:01:54;40.80;;;21.40;;
48403;SDS011;34202;52.536;6.042;2022-12-13T21:06:55;35.90;;;21.30;;
48403;SDS011;34202;52.536;6.042;2022-12-13T21:11:55;38.30;;;21.10;;
48403;SDS011;34202;52.536;6.042;2022-12-13T21:16:57;43.00;;;21.50;;
48403;SDS011;34202;52.536;6.042;2022-12-13T21:21:59;46.60;;;23.40;;
48403;SDS011;34202;52.536;6.042;2022-12-13T21:26:59;34.10;;;19.40;;
48403;SDS011;34202;52.536;6.042;2022-12-13T21:32:00;34.70;;;21.40;;
48403;SDS011;34202;52.536;6.042;2022-12-13T21:37:00;41.70;;;22.80;;
48403;SDS011;34202;52.536;6.042;2022-12-13T21:42:00;28.80;;;17.20;;
48403;SDS011;34202;52.536;6.042;2022-12-13T21:47:00;39.00;;;21.70;;
48403;SDS011;34202;52.536;6.042;2022-12-13T21:52:01;36.90;;;20.90;;
48403;SDS011;34202;52.536;6.042;2022-12-13T21:57:01;37.00;;;20.40;;
48403;SDS011;34202;52.536;6.042;2022-12-13T22:02:20;34.00;;;19.60;;
48403;SDS011;34202;52.536;6.042;2022-12-13T22:07:24;37.40;;;21.80;;
48403;SDS011;34202;52.536;6.042;2022-12-13T22:12:35;33.80;;;19.80;;
48403;SDS011;34202;52.536;6.042;2022-12-13T22:17:37;32.70;;;17.80;;
48403;SDS011;34202;52.536;6.042;2022-12-13T22:22:38;42.20;;;21.00;;
48403;SDS011;34202;52.536;6.042;2022-12-13T22:27:40;31.60;;;18.30;;
48403;SDS011;34202;52.536;6.042;2022-12-13T22:32:41;44.20;;;23.50;;
48403;SDS011;34202;52.536;6.042;2022-12-13T22:37:41;35.00;;;19.40;;
48403;SDS011;34202;52.536;6.042;2022-12-13T22:42:41;33.70;;;18.90;;
48403;SDS011;34202;52.536;6.042;2022-12-13T22:47:41;38.30;;;21.50;;
48403;SDS011;34202;52.536;6.042;2022-12-13T22:52:42;35.30;;;20.00;;
48403;SDS011;34202;52.536;6.042;2022-12-13T22:57:42;40.60;;;22.40;;
48403;SDS011;34202;52.536;6.042;2022-12-13T23:02:43;34.70;;;19.00;;
48403;SDS011;34202;52.536;6.042;2022-12-13T23:07:43;31.70;;;17.40;;
48403;SDS011;34202;52.536;6.042;2022-12-13T23:12:44;38.10;;;19.40;;
48403;SDS011;34202;52.536;6.042;2022-12-13T23:18:03;36.40;;;20.40;;
48403;SDS011;34202;52.536;6.042;2022-12-13T23:23:03;36.40;;;21.60;;
48403;SDS011;34202;52.536;6.042;2022-12-13T23:28:03;33.50;;;18.30;;
48403;SDS011;34202;52.536;6.042;2022-12-13T23:33:04;35.50;;;20.20;;
48403;SDS011;34202;52.536;6.042;2022-12-13T23:38:04;41.10;;;20.50;;
48403;SDS011;34202;52.536;6.042;2022-12-13T23:43:04;36.70;;;19.70;;
48403;SDS011;34202;52.536;6.042;2022-12-13T23:48:05;32.80;;;19.40;;
48403;SDS011;34202;52.536;6.042;2022-12-13T23:53:05;29.00;;;17.10;;
48403;SDS011;34202;52.536;6.042;2022-12-13T23:58:06;38.20;;;20.70;;
